createdAt,value
2017-08-21T00:00:13.628Z,61.60
2017-08-21T00:02:42.072Z,61.90
2017-08-21T00:05:09.782Z,61.40
2017-08-21T00:07:37.504Z,61.70
2017-08-21T00:10:05.243Z,61.60
2017-08-21T00:12:32.978Z,61.40
2017-08-21T00:15:00.713Z,62.00
2017-08-21T00:17:28.447Z,61.80
2017-08-21T00:19:56.162Z,62.10
2017-08-21T00:22:23.917Z,62.80
2017-08-21T00:24:51.642Z,62.40
2017-08-21T00:27:19.363Z,62.90
2017-08-21T00:29:47.110Z,62.30
2017-08-21T00:32:14.825Z,62.00
2017-08-21T00:34:42.566Z,61.70
2017-08-21T00:37:11.002Z,62.20
2017-08-21T00:39:38.733Z,63.00
2017-08-21T00:42:06.472Z,63.00
2017-08-21T00:44:34.215Z,62.50
2017-08-21T00:47:01.960Z,63.00
2017-08-21T00:49:30.387Z,63.40
2017-08-21T00:51:58.170Z,63.70
2017-08-21T00:54:25.929Z,62.80
2017-08-21T00:56:53.670Z,63.20
2017-08-21T00:59:21.418Z,63.50
2017-08-21T01:01:49.155Z,62.60
2017-08-21T01:04:16.870Z,63.20
2017-08-21T01:06:44.590Z,63.50
2017-08-21T01:09:12.310Z,63.90
2017-08-21T01:11:40.036Z,63.50
2017-08-21T01:14:07.742Z,64.00
2017-08-21T01:16:38.067Z,63.60
2017-08-21T01:19:05.791Z,63.70
2017-08-21T01:21:33.510Z,64.20
2017-08-21T01:24:01.239Z,64.30
2017-08-21T01:26:28.951Z,64.90
2017-08-21T01:28:56.666Z,64.70
2017-08-21T01:31:24.386Z,64.60
2017-08-21T01:33:52.130Z,65.00
2017-08-21T01:36:20.021Z,64.10
2017-08-21T01:38:47.779Z,64.70
2017-08-21T01:41:15.542Z,63.90
2017-08-21T01:43:43.270Z,64.20
2017-08-21T01:46:10.987Z,63.90
2017-08-21T01:48:39.410Z,64.40
2017-08-21T01:51:07.161Z,64.70
2017-08-21T01:53:34.926Z,64.80
2017-08-21T01:56:02.654Z,64.60
2017-08-21T01:58:30.371Z,65.00
2017-08-21T02:00:58.100Z,64.90
2017-08-21T02:03:26.343Z,65.50
2017-08-21T02:05:54.069Z,64.90
2017-08-21T02:08:21.802Z,65.10
2017-08-21T02:10:49.515Z,65.70
2017-08-21T02:13:17.243Z,65.80
2017-08-21T02:15:44.973Z,65.60
2017-08-21T02:18:12.696Z,65.50
2017-08-21T02:20:40.423Z,65.60
2017-08-21T02:23:08.418Z,66.20
2017-08-21T02:25:36.162Z,65.90
2017-08-21T02:28:03.878Z,65.30
2017-08-21T02:30:31.591Z,65.80
2017-08-21T02:32:59.302Z,65.70
2017-08-21T02:35:27.790Z,65.70
2017-08-21T02:37:55.578Z,65.20
2017-08-21T02:40:23.316Z,65.30
2017-08-21T02:42:51.040Z,65.40
2017-08-21T02:45:18.750Z,65.00
2017-08-21T02:47:46.470Z,65.50
2017-08-21T02:50:14.203Z,65.50
2017-08-21T02:52:42.750Z,65.60
2017-08-21T02:55:10.470Z,65.80
2017-08-21T02:57:38.186Z,65.50
2017-08-21T03:00:05.895Z,65.00
2017-08-21T03:02:34.579Z,65.50
2017-08-21T03:05:03.065Z,65.70
2017-08-21T03:07:30.782Z,65.80
2017-08-21T03:09:58.503Z,66.10
2017-08-21T03:12:26.222Z,66.10
2017-08-21T03:14:53.946Z,66.00
2017-08-21T03:17:21.708Z,66.50
2017-08-21T03:19:49.423Z,66.90
2017-08-21T03:22:17.432Z,67.30
2017-08-21T03:24:45.155Z,66.90
2017-08-21T03:27:12.871Z,66.00
2017-08-21T03:29:40.577Z,65.90
2017-08-21T03:32:08.308Z,67.10
2017-08-21T03:34:36.934Z,67.90
2017-08-21T03:37:04.649Z,67.30
2017-08-21T03:39:32.377Z,67.00
2017-08-21T03:42:00.859Z,67.60
2017-08-21T03:44:28.583Z,66.60
2017-08-21T03:46:56.295Z,67.20
2017-08-21T03:49:24.402Z,66.70
2017-08-21T03:51:52.139Z,66.30
2017-08-21T03:54:19.859Z,67.50
2017-08-21T03:56:47.566Z,67.60
2017-08-21T03:59:15.294Z,67.20
2017-08-21T04:01:43.010Z,67.40
2017-08-21T04:04:10.731Z,66.50
2017-08-21T04:06:38.467Z,66.80
2017-08-21T04:09:06.170Z,67.30
2017-08-21T04:11:33.878Z,68.70
2017-08-21T04:14:01.600Z,67.80
2017-08-21T04:16:29.329Z,67.30
2017-08-21T04:18:57.055Z,66.60
2017-08-21T04:21:25.330Z,67.10
2017-08-21T04:23:53.068Z,67.10
2017-08-21T04:26:20.786Z,67.10
2017-08-21T04:28:48.502Z,66.80
2017-08-21T04:31:16.221Z,67.40
2017-08-21T04:33:43.917Z,67.90
2017-08-21T04:36:11.622Z,67.80
2017-08-21T04:38:39.327Z,68.00
2017-08-21T04:41:07.042Z,68.20
2017-08-21T04:43:34.747Z,67.20
2017-08-21T04:46:02.469Z,67.80
2017-08-21T04:48:30.217Z,67.90
2017-08-21T04:50:57.966Z,67.20
2017-08-21T04:53:25.678Z,67.20
2017-08-21T04:55:54.364Z,67.70
2017-08-21T04:58:22.114Z,68.40
2017-08-21T05:00:49.834Z,68.20
2017-08-21T05:03:17.550Z,68.20
2017-08-21T05:05:45.253Z,67.60
2017-08-21T05:08:12.966Z,67.60
2017-08-21T05:10:40.687Z,68.30
2017-08-21T05:13:08.403Z,67.50
2017-08-21T05:15:36.118Z,67.40
2017-08-21T05:18:03.858Z,67.90
2017-08-21T05:20:31.578Z,68.40
2017-08-21T05:23:00.210Z,68.90
2017-08-21T05:25:28.706Z,69.40
2017-08-21T05:27:56.407Z,68.20
2017-08-21T05:30:24.142Z,67.70
2017-08-21T05:32:51.871Z,68.20
2017-08-21T05:35:19.594Z,67.90
2017-08-21T05:37:47.294Z,68.40
2017-08-21T05:40:15.022Z,69.20
2017-08-21T05:42:43.135Z,68.00
2017-08-21T05:45:10.861Z,66.60
2017-08-21T05:47:38.603Z,67.30
2017-08-21T05:50:06.343Z,67.80
2017-08-21T05:52:34.078Z,67.60
2017-08-21T05:55:02.528Z,68.00
2017-08-21T05:57:30.246Z,66.60
2017-08-21T05:59:57.978Z,65.30
2017-08-21T06:02:25.709Z,65.40
2017-08-21T06:04:53.442Z,65.90
2017-08-21T06:07:21.185Z,67.70
2017-08-21T06:09:48.909Z,66.60
2017-08-21T06:12:16.642Z,65.30
2017-08-21T06:14:44.441Z,65.10
2017-08-21T06:17:12.162Z,65.70
2017-08-21T06:19:39.871Z,66.10
2017-08-21T06:22:07.613Z,66.40
2017-08-21T06:24:35.338Z,65.20
2017-08-21T06:27:03.075Z,64.70
2017-08-21T06:29:31.514Z,63.90
2017-08-21T06:31:59.222Z,63.30
2017-08-21T06:34:26.954Z,62.40
2017-08-21T06:36:54.683Z,61.70
2017-08-21T06:39:22.453Z,61.50
2017-08-21T06:41:51.037Z,62.10
2017-08-21T06:44:18.742Z,61.50
2017-08-21T06:46:46.469Z,61.70
2017-08-21T06:49:14.187Z,61.60
2017-08-21T06:51:41.899Z,62.50
2017-08-21T06:54:10.031Z,59.20
2017-08-21T06:56:37.775Z,58.90
2017-08-21T06:59:05.883Z,59.40
2017-08-21T07:01:33.610Z,59.50
2017-08-21T07:04:02.279Z,59.00
2017-08-21T07:06:29.979Z,59.20
2017-08-21T07:08:58.468Z,58.00
2017-08-21T07:11:26.195Z,57.70
2017-08-21T07:13:53.910Z,56.20
2017-08-21T07:16:22.024Z,56.30
2017-08-21T07:18:49.747Z,58.40
2017-08-21T07:21:17.583Z,56.70
2017-08-21T07:23:45.298Z,57.20
2017-08-21T07:26:13.031Z,57.30
2017-08-21T07:28:40.736Z,58.20
2017-08-21T07:31:08.464Z,56.90
2017-08-21T07:33:36.570Z,56.20
2017-08-21T07:36:04.283Z,57.30
2017-08-21T07:38:32.395Z,56.30
2017-08-21T07:41:00.887Z,57.80
2017-08-21T07:43:28.646Z,58.20
2017-08-21T07:45:56.382Z,56.70
2017-08-21T07:48:24.494Z,56.40
2017-08-21T07:50:52.239Z,56.80
2017-08-21T07:53:19.961Z,55.60
2017-08-21T07:55:47.689Z,56.80
2017-08-21T07:58:15.408Z,55.80
2017-08-21T08:00:43.126Z,56.60
2017-08-21T08:03:11.614Z,55.20
2017-08-21T08:05:39.338Z,54.90
2017-08-21T08:08:07.462Z,54.10
2017-08-21T08:10:35.226Z,54.10
2017-08-21T08:13:02.951Z,54.50
2017-08-21T08:15:30.670Z,54.20
2017-08-21T08:17:58.378Z,54.50
2017-08-21T08:20:26.091Z,54.30
2017-08-21T08:22:53.808Z,54.70
2017-08-21T08:25:21.531Z,55.10
2017-08-21T08:27:49.243Z,52.40
2017-08-21T08:30:16.987Z,53.00
2017-08-21T08:32:44.722Z,53.40
2017-08-21T08:35:12.447Z,52.70
2017-08-21T08:37:40.164Z,52.70
2017-08-21T08:40:07.896Z,53.10
2017-08-21T08:42:35.678Z,53.60
2017-08-21T08:45:03.443Z,52.50
2017-08-21T08:47:31.177Z,52.80
2017-08-21T08:49:58.917Z,52.10
2017-08-21T08:52:26.695Z,50.00
2017-08-21T08:54:54.423Z,49.20
2017-08-21T08:57:22.142Z,48.90
2017-08-21T08:59:49.879Z,48.20
2017-08-21T09:02:17.646Z,46.80
2017-08-21T09:04:45.468Z,50.30
2017-08-21T09:07:13.950Z,47.20
2017-08-21T09:09:41.706Z,48.50
2017-08-21T09:12:09.431Z,49.60
2017-08-21T09:14:38.237Z,47.80
2017-08-21T09:17:06.532Z,48.90
2017-08-21T09:19:34.260Z,47.60
2017-08-21T09:22:02.865Z,49.20
2017-08-21T09:24:30.603Z,48.40
2017-08-21T09:26:58.318Z,48.40
2017-08-21T09:29:26.043Z,49.10
2017-08-21T09:31:53.767Z,49.70
2017-08-21T09:34:21.479Z,50.60
2017-08-21T09:36:49.199Z,45.60
2017-08-21T09:39:16.922Z,46.20
2017-08-21T09:41:44.638Z,46.60
2017-08-21T09:44:12.363Z,46.40
2017-08-21T09:46:40.075Z,46.80
2017-08-21T09:49:07.791Z,46.30
2017-08-21T09:51:35.508Z,47.00
2017-08-21T09:54:03.998Z,46.70
2017-08-21T09:56:31.817Z,44.60
2017-08-21T09:58:59.551Z,44.90
2017-08-21T10:01:27.270Z,44.10
2017-08-21T10:03:54.999Z,44.20
2017-08-21T10:06:22.734Z,46.00
2017-08-21T10:08:51.826Z,45.60
2017-08-21T10:11:19.547Z,46.00
2017-08-21T10:13:47.279Z,45.60
2017-08-21T10:16:15.004Z,45.30
2017-08-21T10:18:42.742Z,45.90
2017-08-21T10:21:10.475Z,46.10
2017-08-21T10:23:38.190Z,46.30
2017-08-21T10:26:06.903Z,47.50
2017-08-21T10:28:34.635Z,45.70
2017-08-21T10:31:02.355Z,47.30
2017-08-21T10:33:30.075Z,47.30
2017-08-21T10:35:57.938Z,46.70
2017-08-21T10:38:25.655Z,48.20
2017-08-21T10:40:53.371Z,47.70
2017-08-21T10:43:22.089Z,48.60
2017-08-21T10:45:49.799Z,47.00
2017-08-21T10:48:17.511Z,49.20
2017-08-21T10:50:45.234Z,48.40
2017-08-21T10:53:12.971Z,49.50
2017-08-21T10:55:40.731Z,47.10
2017-08-21T10:58:08.507Z,47.40
2017-08-21T11:00:37.587Z,46.70
2017-08-21T11:03:05.339Z,47.30
2017-08-21T11:05:33.059Z,46.90
2017-08-21T11:08:00.853Z,48.70
2017-08-21T11:10:28.567Z,47.20
2017-08-21T11:12:56.292Z,47.00
2017-08-21T11:15:24.010Z,46.90
2017-08-21T11:17:52.915Z,46.60
2017-08-21T11:20:20.631Z,47.80
2017-08-21T11:22:48.338Z,46.10
2017-08-21T11:25:16.091Z,45.60
2017-08-21T11:27:43.805Z,46.00
2017-08-21T11:30:11.526Z,46.10
2017-08-21T11:32:39.247Z,45.10
2017-08-21T11:35:06.963Z,45.20
2017-08-21T11:37:34.690Z,44.90
2017-08-21T11:40:02.410Z,46.10
2017-08-21T11:42:31.400Z,44.50
2017-08-21T11:44:59.138Z,44.80
2017-08-21T11:47:26.864Z,45.40
2017-08-21T11:49:54.604Z,43.40
2017-08-21T11:52:22.311Z,43.10
2017-08-21T11:54:50.049Z,44.70
2017-08-21T11:57:17.778Z,44.00
2017-08-21T11:59:46.050Z,43.00
2017-08-21T12:02:13.823Z,45.60
2017-08-21T12:04:41.551Z,42.10
2017-08-21T12:07:09.286Z,42.40
2017-08-21T12:09:37.010Z,44.60
2017-08-21T12:12:05.019Z,45.30
2017-08-21T12:14:32.739Z,42.90
2017-08-21T12:17:02.674Z,43.50
2017-08-21T12:19:30.422Z,43.80
2017-08-21T12:21:58.182Z,42.50
2017-08-21T12:24:25.890Z,42.90
2017-08-21T12:26:53.609Z,44.60
2017-08-21T12:29:21.311Z,44.30
2017-08-21T12:31:49.032Z,43.20
2017-08-21T12:34:18.247Z,42.90
2017-08-21T12:36:45.957Z,43.40
2017-08-21T12:39:13.672Z,44.90
2017-08-21T12:41:41.382Z,44.40
2017-08-21T12:44:09.098Z,45.00
2017-08-21T12:47:14.789Z,44.90
2017-08-21T12:49:42.518Z,44.70
2017-08-21T12:52:10.250Z,43.20
2017-08-21T12:54:37.971Z,45.20
2017-08-21T12:57:05.704Z,43.60
2017-08-21T12:59:33.399Z,44.20
2017-08-21T13:02:01.314Z,43.10
2017-08-21T13:04:29.046Z,44.00
2017-08-21T13:06:56.759Z,41.40
2017-08-21T13:09:24.477Z,39.60
2017-08-21T13:11:52.184Z,40.70
2017-08-21T13:14:19.911Z,39.80
2017-08-21T13:16:47.626Z,40.20
2017-08-21T13:19:16.573Z,41.70
2017-08-21T13:21:44.310Z,41.60
2017-08-21T13:24:12.014Z,40.90
2017-08-21T13:26:39.810Z,40.50
2017-08-21T13:29:07.539Z,41.40
2017-08-21T13:31:35.252Z,41.00
2017-08-21T13:34:02.980Z,40.30
2017-08-21T13:36:31.657Z,40.20
2017-08-21T13:38:59.378Z,41.20
2017-08-21T13:41:27.083Z,40.90
2017-08-21T13:43:54.794Z,42.40
2017-08-21T13:46:22.531Z,41.20
2017-08-21T13:48:50.306Z,42.50
2017-08-21T13:51:18.039Z,42.10
2017-08-21T13:53:46.900Z,43.70
2017-08-21T13:56:14.642Z,43.20
2017-08-21T13:58:42.346Z,43.80
2017-08-21T14:01:10.042Z,43.10
2017-08-21T14:03:37.750Z,43.70
2017-08-21T14:06:05.479Z,43.80
2017-08-21T14:08:33.200Z,43.20
2017-08-21T14:11:02.264Z,44.10
2017-08-21T14:13:30.007Z,44.50
2017-08-21T14:15:57.745Z,43.50
2017-08-21T14:18:25.458Z,44.50
2017-08-21T14:20:53.200Z,43.80
2017-08-21T14:23:20.911Z,45.10
2017-08-21T14:25:48.638Z,45.00
2017-08-21T14:28:17.538Z,45.30
2017-08-21T14:30:45.242Z,45.40
2017-08-21T14:33:12.962Z,46.40
2017-08-21T14:35:40.679Z,46.20
2017-08-21T14:38:08.391Z,45.20
2017-08-21T14:40:36.102Z,44.90
2017-08-21T14:43:03.903Z,46.20
2017-08-21T14:45:32.598Z,46.90
2017-08-21T14:48:00.315Z,45.70
2017-08-21T14:50:28.033Z,45.80
2017-08-21T14:52:55.770Z,46.40
2017-08-21T14:55:23.469Z,46.40
2017-08-21T14:57:51.193Z,46.40
2017-08-21T15:00:18.894Z,46.30
2017-08-21T15:02:47.754Z,46.50
2017-08-21T15:05:15.471Z,46.50
2017-08-21T15:07:43.199Z,47.40
2017-08-21T15:10:10.967Z,47.70
2017-08-21T15:12:38.687Z,46.60
2017-08-21T15:15:06.794Z,47.40
2017-08-21T15:17:34.549Z,47.10
2017-08-21T15:20:02.479Z,47.40
2017-08-21T15:22:30.215Z,49.00
2017-08-21T15:24:57.923Z,48.80
2017-08-21T15:27:25.635Z,48.20
2017-08-21T15:29:53.634Z,48.10
2017-08-21T15:32:22.738Z,47.80
2017-08-21T15:34:50.458Z,47.90
2017-08-21T15:37:18.182Z,47.30
2017-08-21T15:39:45.918Z,47.30
2017-08-21T15:42:13.639Z,47.50
2017-08-21T15:44:41.339Z,47.80
2017-08-21T15:47:09.041Z,48.20
2017-08-21T15:49:36.759Z,48.30
2017-08-21T15:52:04.466Z,47.40
2017-08-21T15:54:32.182Z,47.10
2017-08-21T15:56:59.891Z,46.60
2017-08-21T15:59:27.634Z,47.10
2017-08-21T16:01:55.350Z,47.70
2017-08-21T16:04:23.059Z,47.00
2017-08-21T16:06:50.772Z,47.20
2017-08-21T16:09:18.513Z,47.10
2017-08-21T16:11:46.231Z,47.10
2017-08-21T16:14:13.949Z,48.00
2017-08-21T16:16:41.682Z,48.40
2017-08-21T16:19:09.408Z,47.70
2017-08-21T16:21:37.113Z,46.70
2017-08-21T16:24:04.834Z,47.40
2017-08-21T16:26:32.548Z,47.50
2017-08-21T16:29:00.275Z,47.90
2017-08-21T16:31:27.995Z,48.30
2017-08-21T16:33:55.702Z,49.20
2017-08-21T16:36:23.440Z,48.30
2017-08-21T16:38:51.370Z,47.90
2017-08-21T16:41:20.455Z,49.20
2017-08-21T16:43:48.167Z,49.50
2017-08-21T16:46:15.877Z,49.10
2017-08-21T16:48:43.630Z,49.30
2017-08-21T16:51:11.361Z,48.20
2017-08-21T16:53:39.063Z,48.70
2017-08-21T16:56:07.437Z,48.80
2017-08-21T16:58:35.161Z,49.20
2017-08-21T17:01:02.867Z,49.80
2017-08-21T17:03:30.579Z,50.00
2017-08-21T17:05:58.316Z,50.70
2017-08-21T17:08:26.039Z,51.60
2017-08-21T17:10:53.771Z,51.30
2017-08-21T17:13:21.469Z,51.70
2017-08-21T17:15:49.182Z,51.80
2017-08-21T17:18:16.911Z,51.50
2017-08-21T17:20:44.626Z,50.60
2017-08-21T17:23:12.338Z,50.80
2017-08-21T17:25:40.066Z,50.50
2017-08-21T17:28:07.775Z,51.00
2017-08-21T17:30:35.491Z,51.90
2017-08-21T17:33:03.203Z,51.70
2017-08-21T17:35:30.936Z,52.60
2017-08-21T17:37:58.939Z,51.30
2017-08-21T17:40:26.647Z,53.00
2017-08-21T17:42:54.753Z,53.50
2017-08-21T17:45:23.334Z,53.70
2017-08-21T17:47:51.043Z,54.10
2017-08-21T17:50:18.758Z,54.20
2017-08-21T17:52:46.469Z,53.60
2017-08-21T17:55:14.190Z,53.40
2017-08-21T17:57:41.899Z,53.10
2017-08-21T18:00:09.639Z,53.10
2017-08-21T18:02:38.652Z,53.90
2017-08-21T18:05:06.363Z,54.10
2017-08-21T18:07:34.088Z,54.30
2017-08-21T18:10:01.800Z,54.20
2017-08-21T18:12:29.535Z,55.00
2017-08-21T18:14:57.295Z,55.30
2017-08-21T18:17:25.014Z,55.70
2017-08-21T18:19:53.406Z,56.20
2017-08-21T18:22:21.120Z,55.70
2017-08-21T18:24:48.903Z,56.20
2017-08-21T18:27:16.640Z,56.70
2017-08-21T18:29:44.350Z,56.00
